Hope, KY (40334)

9:44 PM EDT on July 31, 2014 (GMT -0400)
4 ESE Stanton (KKYSTANT3) Elev 751 ft | 37.82 °N, 83.78 °W | Change Station

Current weather conditions updated 1 second ago

Clear
Clear
64.3 °F
Feels Like 64.3 °F
N
0.0
Wind Variable Wind from SE
Gusts 1.0 mph

Tomorrow is forecast to be Cooler than today. Afternoon thunderstorms.

Today
High -- | Low -- °F
--% Chance of Precip.
Yesterday
High -- | Low -- °F
Precip. -- in
6:37 AM 8:45 PM
Waxing Crescent, 22% visible
Pressure 30.11 in
Visibility 10.0 miles
Clouds Clear
Dew Point 61 °F
Humidity 89%
Rainfall 0.00 in
Snow Depth Not available.
UV 0 out of 12
Pollen 5.10 out of 12
Air Quality Not available.
Flu Activity Not available.
METAR KIOB 010135Z AUTO 00000KT 10SM CLR 19/18 A3011 RMK AO2

More Conditions Fewer Conditions

Pressure 30.11 in
Visibility 10.0 miles
Clouds Clear
Dew Point 61 °F
Humidity 89%
Rainfall 0.00 in
Snow Depth Not available.
UV 0 out of 12
Pollen 5.10 out of 12
Air Quality Not available.
Flu Activity Not available.
METAR KIOB 010135Z AUTO 00000KT 10SM CLR 19/18 A3011 RMK AO2

More Conditions Fewer Conditions

10-Day Weather Forecast

Almanac

Astronomy

Jul. 31, 2014 Rise Set
Actual Time 6:37 AM EDT 8:45 PM EDT
Civil Twilight 6:08 AM EDT 9:14 PM EDT
Nautical Twilight 5:32 AM EDT 9:50 PM EDT
Astronomical Twilight 4:53 AM EDT 10:28 PM EDT
Moon 10:58 AM EDT (7/31) 11:03 PM EDT (7/31)
Length of Visible Light 15h 05m
Length of Day
14h 07m
Tomorrow will be 1m 50s shorter.
Waxing Crescent, 22% of the Moon is Illuminated
Today
Waxing Crescent
Aug 3
First Quarter
Aug 10
Full
Aug 17
Last Quarter
Aug 25
New

Today's Extremes

State Highs State Lows

Community

WunderPhotos

Upload Photos

1,739,490 photos uploaded!

Nearby

Snow Depth

Station Depth Elevation
No new snow has been reported.

Earthquake Activity

City Distance Mag. Time & Date
No recent earthquake activity has been reported nearby.
Minimum magnitude displayed is 2.5.

Coastal Water Temperatures

Place Temperature
No Stations Reporting

Nearby Weather Stations

Station Location Temp. Heat Index Dew Point Humidity Wind Precip. Elev Updated Type
4 ESE Stanton, Stanton, KY 64.3 °F - 61 °F 89% SE  at  0.0 mph 0.00 in / hr 751 ft 9:44 PM EDT Normal
Old Fogg Pike, Mount Sterling, KY 66.7 °F - 63 °F 87% South  at  0.0 mph - / hr 1032 ft 9:44 PM EDT Rapid Fire
Maysville Avenue, Mount Sterling, KY 73.8 °F 76 °F 62 °F 67% SSW  at  0.0 mph - / hr 1024 ft 9:35 PM EDT Normal
Western Way, Mount Sterling, KY 66.7 °F - 65 °F 94% South  at  0.0 mph 0.00 in / hr 994 ft 9:44 PM EDT Rapid Fire
Ruckerville, Winchester, KY 72.2 °F 74 °F 63 °F 73% SW  at  0.0 mph 0.00 in / hr 1007 ft 9:44 PM EDT Normal
Ridge Road Jet Center, Owingsville, KY 70.0 °F - 64 °F 82% NNE  at  0.0 mph - / hr 899 ft 9:35 PM EDT Normal
Irvine, KY 68.9 °F - 57 °F 66% East  at  0.0 mph 0.00 in / hr 719 ft 9:44 PM EDT Rapid Fire
PICNIC HILL, IRVINE, KY 68.0 °F - 64 °F 86% East  at  0.0 mph - / hr 830 ft 9:34 PM EDT Normal

Show More Stations Show Fewer Stations